createdAt,value
2023-04-12T00:00:33.231Z,2.97
2023-04-12T00:03:03.122Z,1.83
2023-04-12T00:05:30.773Z,3.90
2023-04-12T00:08:00.967Z,4.13
2023-04-12T00:10:28.664Z,2.53
2023-04-12T00:12:56.145Z,5.70
2023-04-12T00:15:24.965Z,3.20
2023-04-12T00:17:52.514Z,3.47
2023-04-12T00:20:20.487Z,2.40
2023-04-12T00:22:48.007Z,5.93
2023-04-12T00:25:15.559Z,2.47
2023-04-12T00:27:43.010Z,2.70
2023-04-12T00:30:11.877Z,3.47
2023-04-12T00:32:42.286Z,4.13
2023-04-12T00:35:10.295Z,4.67
2023-04-12T00:37:38.465Z,6.13
2023-04-12T00:40:08.183Z,2.83
2023-04-12T00:42:37.130Z,4.87
2023-04-12T00:45:05.254Z,3.17
2023-04-12T00:47:32.854Z,2.00
2023-04-12T00:50:03.068Z,5.00
2023-04-12T00:52:34.068Z,3.07
2023-04-12T00:55:02.211Z,2.70
2023-04-12T00:57:35.014Z,3.40
2023-04-12T01:00:04.794Z,3.77
2023-04-12T01:02:33.479Z,3.30
2023-04-12T01:05:03.531Z,2.37
2023-04-12T01:07:44.836Z,3.30
2023-04-12T01:10:25.830Z,2.93
2023-04-12T01:13:02.309Z,2.60
2023-04-12T01:15:35.726Z,2.27
2023-04-12T01:18:06.601Z,2.57
2023-04-12T01:20:44.440Z,2.73
2023-04-12T01:23:22.098Z,2.90
2023-04-12T01:26:02.453Z,3.00
2023-04-12T01:28:34.781Z,2.67
2023-04-12T01:31:04.352Z,4.30
2023-04-12T01:33:33.525Z,3.53
2023-04-12T01:36:05.659Z,3.90
2023-04-12T01:38:34.849Z,3.57
2023-04-12T01:41:02.466Z,3.87
2023-04-12T01:43:31.368Z,3.23
2023-04-12T01:45:58.826Z,3.07
2023-04-12T01:48:26.495Z,4.37
2023-04-12T01:51:05.514Z,2.83
2023-04-12T01:53:40.881Z,4.43
2023-04-12T01:56:10.913Z,4.00
2023-04-12T01:58:43.757Z,4.17
2023-04-12T02:01:13.439Z,4.20
2023-04-12T02:03:43.414Z,3.17
2023-04-12T02:06:11.881Z,2.50
2023-04-12T02:08:39.321Z,2.57
2023-04-12T02:11:10.963Z,3.90
2023-04-12T02:13:39.798Z,3.90
2023-04-12T02:16:10.967Z,3.87
2023-04-12T02:18:41.020Z,3.90
2023-04-12T02:21:08.979Z,4.03
2023-04-12T02:23:36.542Z,2.80
2023-04-12T02:26:04.536Z,2.93
2023-04-12T02:28:33.813Z,3.27
2023-04-12T02:31:02.800Z,2.30
2023-04-12T02:33:30.627Z,2.83
2023-04-12T02:35:58.105Z,4.17
2023-04-12T02:38:25.713Z,4.13
2023-04-12T02:40:53.163Z,2.97
2023-04-12T02:43:20.708Z,3.87
2023-04-12T02:45:48.801Z,2.70
2023-04-12T02:48:17.652Z,3.17
2023-04-12T02:50:45.144Z,4.57
2023-04-12T02:53:12.696Z,4.17
2023-04-12T02:55:40.352Z,3.97
2023-04-12T02:58:07.969Z,2.83
2023-04-12T03:00:35.470Z,3.40
2023-04-12T03:03:04.179Z,3.03
2023-04-12T03:05:33.045Z,3.50
2023-04-12T03:08:00.635Z,3.53
2023-04-12T03:10:28.285Z,3.13
2023-04-12T03:12:55.725Z,4.00
2023-04-12T03:15:23.973Z,3.40
2023-04-12T03:17:51.555Z,4.13
2023-04-12T03:20:20.200Z,3.80
2023-04-12T03:22:49.288Z,2.67
2023-04-12T03:25:17.872Z,2.80
2023-04-12T03:27:45.461Z,2.93
2023-04-12T03:30:13.768Z,4.13
2023-04-12T03:32:42.234Z,4.13
2023-04-12T03:35:10.745Z,3.60
2023-04-12T03:37:42.693Z,2.67
2023-04-12T03:40:12.697Z,3.53
2023-04-12T03:42:40.400Z,2.87
2023-04-12T03:45:08.921Z,2.80
2023-04-12T03:47:37.206Z,2.87
2023-04-12T03:50:11.460Z,2.10
2023-04-12T03:52:39.891Z,2.50
2023-04-12T03:55:08.409Z,4.37
2023-04-12T03:57:37.222Z,2.33
2023-04-12T04:00:06.175Z,4.13
2023-04-12T04:02:33.806Z,4.27
2023-04-12T04:05:02.402Z,2.83
2023-04-12T04:07:31.716Z,3.23
2023-04-12T04:09:59.492Z,3.07
2023-04-12T04:12:27.982Z,3.50
2023-04-12T04:14:56.908Z,5.47
2023-04-12T04:17:24.451Z,3.63
2023-04-12T04:19:51.955Z,4.43
2023-04-12T04:22:21.511Z,3.67
2023-04-12T04:24:50.216Z,4.20
2023-04-12T04:27:17.698Z,4.80
2023-04-12T04:29:45.541Z,4.60
2023-04-12T04:32:15.803Z,4.13
2023-04-12T04:34:43.415Z,3.57
2023-04-12T04:37:12.457Z,3.40
2023-04-12T04:39:40.197Z,5.43
2023-04-12T04:42:07.778Z,4.90
2023-04-12T04:44:36.314Z,2.77
2023-04-12T04:47:04.943Z,3.37
2023-04-12T04:49:33.830Z,4.63
2023-04-12T04:52:01.415Z,4.17
2023-04-12T04:54:28.887Z,3.17
2023-04-12T04:56:56.398Z,2.37
2023-04-12T04:59:24.266Z,2.80
2023-04-12T05:01:52.385Z,4.93
2023-04-12T05:04:19.933Z,3.10
2023-04-12T05:06:48.909Z,4.40
2023-04-12T05:09:16.416Z,3.17
2023-04-12T05:11:43.881Z,2.70
2023-04-12T05:14:12.612Z,3.07
2023-04-12T05:16:40.350Z,2.20
2023-04-12T05:19:07.946Z,3.90
2023-04-12T05:21:35.638Z,2.97
2023-04-12T05:24:04.591Z,2.87
2023-04-12T05:26:34.066Z,3.23
2023-04-12T05:29:02.266Z,3.80
2023-04-12T05:31:29.783Z,2.43
2023-04-12T05:33:57.313Z,3.73
2023-04-12T05:36:24.817Z,2.00
2023-04-12T05:38:53.029Z,2.70
2023-04-12T05:41:21.924Z,3.83
2023-04-12T05:43:49.412Z,2.83
2023-04-12T05:46:16.923Z,2.50
2023-04-12T05:48:44.509Z,3.93
2023-04-12T05:51:12.020Z,2.03
2023-04-12T05:53:39.604Z,2.70
2023-04-12T05:56:07.772Z,2.30
2023-04-12T05:58:36.587Z,2.77
2023-04-12T06:01:04.226Z,2.87
2023-04-12T06:03:32.298Z,3.13
2023-04-12T06:06:00.047Z,3.80
2023-04-12T06:08:29.285Z,2.23
2023-04-12T06:10:56.824Z,3.97
2023-04-12T06:13:24.424Z,3.73
2023-04-12T06:15:53.333Z,1.73
2023-04-12T06:18:20.885Z,3.03
2023-04-12T06:20:48.440Z,1.60
2023-04-12T06:23:16.118Z,3.37
2023-04-12T06:25:43.674Z,2.57
2023-04-12T06:28:11.125Z,2.87
2023-04-12T06:30:38.848Z,3.27
2023-04-12T06:33:07.860Z,2.53
2023-04-12T06:35:35.468Z,2.30
2023-04-12T06:38:03.046Z,3.07
2023-04-12T06:40:30.755Z,2.50
2023-04-12T06:42:58.211Z,2.70
2023-04-12T06:45:26.115Z,3.60
2023-04-12T06:47:55.900Z,2.13
2023-04-12T06:50:27.133Z,2.20
2023-04-12T06:52:54.614Z,1.93
2023-04-12T06:55:22.219Z,2.07
2023-04-12T06:57:51.981Z,2.33
2023-04-12T07:00:19.761Z,2.27
2023-04-12T07:02:47.537Z,3.07
2023-04-12T07:05:15.761Z,1.83
2023-04-12T07:07:45.256Z,1.80
2023-04-12T07:10:12.864Z,2.80
2023-04-12T07:12:40.489Z,2.47
2023-04-12T07:15:08.883Z,1.83
2023-04-12T07:17:36.519Z,1.80
2023-04-12T07:20:04.352Z,1.90
2023-04-12T07:22:31.857Z,2.13
2023-04-12T07:25:00.957Z,2.27
2023-04-12T07:27:28.570Z,1.80
2023-04-12T07:29:57.942Z,2.70
2023-04-12T07:32:25.659Z,2.37
2023-04-12T07:34:53.573Z,2.43
2023-04-12T07:37:21.258Z,2.40
2023-04-12T07:39:48.786Z,3.43
2023-04-12T07:42:18.220Z,1.73
2023-04-12T07:44:45.936Z,2.17
2023-04-12T07:47:13.433Z,1.73
2023-04-12T07:49:40.881Z,1.87
2023-04-12T07:52:08.454Z,2.93
2023-04-12T07:54:35.985Z,2.97
2023-04-12T07:57:04.177Z,1.93
2023-04-12T07:59:33.640Z,1.63
2023-04-12T08:02:01.983Z,1.43
2023-04-12T08:04:29.835Z,1.97
2023-04-12T08:06:57.390Z,1.43
2023-04-12T08:09:25.815Z,1.90
2023-04-12T08:11:53.301Z,1.40
2023-04-12T08:14:21.403Z,2.23
2023-04-12T08:16:50.203Z,2.03
2023-04-12T08:19:18.946Z,1.70
2023-04-12T08:21:46.546Z,2.03
2023-04-12T08:24:14.019Z,1.90
2023-04-12T08:26:41.513Z,1.67
2023-04-12T08:29:09.096Z,1.63
2023-04-12T08:31:36.744Z,1.40
2023-04-12T08:34:05.559Z,2.00
2023-04-12T08:36:33.121Z,2.17
2023-04-12T08:39:01.294Z,1.43
2023-04-12T08:41:29.270Z,2.73
2023-04-12T08:43:57.039Z,1.47
2023-04-12T08:46:25.872Z,1.60
2023-04-12T08:48:55.337Z,1.67
2023-04-12T08:51:24.208Z,2.33
2023-04-12T08:53:53.938Z,1.53
2023-04-12T08:56:23.336Z,1.40
2023-04-12T08:58:53.459Z,1.60
2023-04-12T09:01:22.961Z,1.27
2023-04-12T09:03:50.698Z,1.73
2023-04-12T09:06:18.376Z,1.33
2023-04-12T09:08:54.339Z,1.53
2023-04-12T09:11:26.632Z,1.20
2023-04-12T09:13:56.223Z,1.37
2023-04-12T09:16:37.271Z,1.30
2023-04-12T09:19:06.419Z,1.37
2023-04-12T09:21:35.559Z,2.83
2023-04-12T09:24:10.346Z,2.47
2023-04-12T09:26:40.445Z,2.13
2023-04-12T09:29:23.971Z,1.30
2023-04-12T09:31:56.969Z,1.57
2023-04-12T09:34:25.950Z,1.40
2023-04-12T09:36:55.414Z,1.90
2023-04-12T09:39:33.910Z,1.40
2023-04-12T09:42:18.038Z,1.37
2023-04-12T09:44:53.128Z,1.23
2023-04-12T09:47:21.081Z,1.20
2023-04-12T09:49:48.777Z,1.70
2023-04-12T09:52:16.412Z,1.63
2023-04-12T09:54:47.868Z,1.80
2023-04-12T09:57:18.828Z,1.77
2023-04-12T09:59:50.284Z,1.30
2023-04-12T10:02:19.539Z,1.83
2023-04-12T10:04:50.274Z,1.30
2023-04-12T10:07:19.297Z,1.50
2023-04-12T10:09:48.255Z,1.37
2023-04-12T10:12:16.687Z,1.20
2023-04-12T10:14:45.081Z,3.47
2023-04-12T10:17:14.225Z,1.40
2023-04-12T10:19:41.921Z,1.37
2023-04-12T10:22:09.503Z,1.50
2023-04-12T10:24:39.005Z,1.30
2023-04-12T10:27:08.112Z,1.67
2023-04-12T10:29:37.164Z,1.87
2023-04-12T10:32:20.753Z,2.07
2023-04-12T10:34:52.718Z,1.60
2023-04-12T10:37:21.357Z,1.50
2023-04-12T10:39:53.892Z,1.60
2023-04-12T10:42:25.328Z,1.60
2023-04-12T10:44:54.667Z,1.97
2023-04-12T10:48:01.550Z,1.70
2023-04-12T10:50:31.257Z,1.67
2023-04-12T10:53:26.583Z,2.00
2023-04-12T10:55:54.268Z,2.30
2023-04-12T10:58:58.679Z,1.70
2023-04-12T11:01:27.455Z,1.80
2023-04-12T11:04:25.896Z,2.17
2023-04-12T11:06:59.631Z,2.13
2023-04-12T11:09:29.491Z,2.43
2023-04-12T11:12:12.733Z,2.10
2023-04-12T11:14:45.982Z,2.77
2023-04-12T11:17:24.317Z,2.60
2023-04-12T11:19:55.474Z,2.13
2023-04-12T11:22:24.947Z,2.83
2023-04-12T11:24:54.450Z,2.37
2023-04-12T11:27:23.303Z,3.10
2023-04-12T11:29:55.575Z,4.90
2023-04-12T11:32:24.542Z,2.90
2023-04-12T11:34:52.320Z,2.00
2023-04-12T11:37:21.625Z,2.33
2023-04-12T11:39:52.751Z,2.97
2023-04-12T11:42:21.596Z,2.57
2023-04-12T11:44:57.098Z,2.70
2023-04-12T11:47:27.240Z,2.77
2023-04-12T11:49:56.568Z,3.50
2023-04-12T11:52:30.375Z,2.57
2023-04-12T11:55:01.562Z,3.13
2023-04-12T11:57:31.322Z,3.27
2023-04-12T11:59:59.862Z,3.30
2023-04-12T12:02:33.115Z,2.67
2023-04-12T12:05:04.933Z,2.30
2023-04-12T12:07:32.904Z,3.73
2023-04-12T12:10:01.934Z,2.67
2023-04-12T12:12:29.602Z,2.33
2023-04-12T12:15:00.491Z,3.10
2023-04-12T12:17:29.603Z,2.53
2023-04-12T12:19:59.151Z,2.33
2023-04-12T12:22:26.641Z,3.00
2023-04-12T12:24:57.110Z,2.87
2023-04-12T12:27:26.146Z,2.60
2023-04-12T12:29:56.538Z,2.27
2023-04-12T12:32:24.282Z,2.33
2023-04-12T12:34:55.251Z,1.77
2023-04-12T12:37:25.417Z,2.00
2023-04-12T12:40:14.474Z,2.00
2023-04-12T12:42:46.356Z,2.00
2023-04-12T12:45:13.985Z,2.20
2023-04-12T12:47:50.097Z,2.43
2023-04-12T12:50:21.072Z,1.73
2023-04-12T12:52:50.373Z,2.10
2023-04-12T12:55:18.614Z,2.40
2023-04-12T12:57:55.461Z,1.90
2023-04-12T13:00:33.310Z,2.37
2023-04-12T13:03:00.966Z,2.13
2023-04-12T13:05:30.286Z,3.73
2023-04-12T13:07:57.830Z,2.70
2023-04-12T13:10:26.998Z,2.33
2023-04-12T13:12:54.502Z,2.03
2023-04-12T13:15:24.312Z,2.30
2023-04-12T13:17:53.318Z,3.30
2023-04-12T13:20:21.318Z,2.80
2023-04-12T13:22:51.489Z,2.30
2023-04-12T13:25:20.377Z,2.23
2023-04-12T13:27:48.881Z,2.80
2023-04-12T13:30:16.643Z,2.47
2023-04-12T13:32:44.563Z,2.17
2023-04-12T13:35:12.400Z,2.87
2023-04-12T13:37:40.059Z,2.27
2023-04-12T13:40:09.965Z,2.67
2023-04-12T13:42:37.695Z,1.50
2023-04-12T13:45:06.920Z,2.43
2023-04-12T13:47:35.346Z,1.50
2023-04-12T13:50:03.064Z,2.13
2023-04-12T13:52:30.884Z,1.40
2023-04-12T13:54:59.575Z,1.83
2023-04-12T13:57:28.436Z,1.30
2023-04-12T13:59:55.920Z,1.50
2023-04-12T14:02:23.532Z,1.47
2023-04-12T14:04:53.026Z,1.77
2023-04-12T14:07:21.178Z,1.40
2023-04-12T14:09:48.912Z,1.40
2023-04-12T14:12:16.615Z,2.13
2023-04-12T14:14:45.513Z,1.70
2023-04-12T14:17:13.104Z,1.60
2023-04-12T14:19:40.742Z,1.40
2023-04-12T14:22:08.287Z,2.10
2023-04-12T14:24:36.787Z,1.90
2023-04-12T14:27:04.875Z,2.83
2023-04-12T14:29:32.830Z,1.83
2023-04-12T14:32:01.719Z,1.90
2023-04-12T14:34:30.956Z,2.07
2023-04-12T14:37:00.202Z,1.57
2023-04-12T14:39:27.968Z,1.40
2023-04-12T14:41:56.993Z,1.70
2023-04-12T14:44:26.144Z,4.17
2023-04-12T14:46:54.085Z,2.17
2023-04-12T14:49:22.981Z,1.40
2023-04-12T14:51:50.470Z,1.90
2023-04-12T14:54:18.004Z,2.37
2023-04-12T14:56:52.406Z,1.80
2023-04-12T14:59:21.629Z,1.63
2023-04-12T15:01:49.362Z,1.97
2023-04-12T15:04:17.226Z,1.97
2023-04-12T15:06:46.255Z,2.30
2023-04-12T15:09:15.637Z,2.80
2023-04-12T15:11:47.226Z,1.40
2023-04-12T15:14:17.944Z,3.07
2023-04-12T15:16:46.743Z,1.77
2023-04-12T15:19:20.189Z,1.73
2023-04-12T15:21:51.333Z,1.77
2023-04-12T15:24:19.231Z,2.50
2023-04-12T15:26:48.407Z,1.43
2023-04-12T15:29:16.503Z,1.53
2023-04-12T15:31:44.160Z,1.67
2023-04-12T15:34:12.256Z,1.40
2023-04-12T15:36:43.012Z,1.03
2023-04-12T15:39:13.500Z,0.80
2023-04-12T15:41:42.693Z,0.67
2023-04-12T15:44:12.944Z,0.30
2023-04-12T15:46:40.679Z,0.20
2023-04-12T15:49:08.901Z,0.43
2023-04-12T15:51:36.600Z,0.40
2023-04-12T15:54:06.563Z,0.20
2023-04-12T15:56:37.750Z,0.37
2023-04-12T15:59:05.811Z,0.73
2023-04-12T16:01:35.679Z,0.60
2023-04-12T16:04:03.485Z,0.30
2023-04-12T16:06:34.654Z,0.20
2023-04-12T16:09:02.944Z,0.20
2023-04-12T16:11:30.792Z,0.10
2023-04-12T16:13:59.613Z,0.43
2023-04-12T16:16:27.576Z,0.20
2023-04-12T16:18:55.756Z,0.70
2023-04-12T16:21:26.326Z,0.47
2023-04-12T16:23:54.041Z,0.27
2023-04-12T16:26:22.509Z,0.33
2023-04-12T16:28:50.592Z,0.73
2023-04-12T16:31:20.822Z,1.70
2023-04-12T16:33:49.238Z,0.33
2023-04-12T16:36:17.030Z,0.50
2023-04-12T16:38:45.449Z,0.30
2023-04-12T16:41:12.992Z,0.80
2023-04-12T16:43:42.624Z,0.30
2023-04-12T16:46:11.674Z,0.60
2023-04-12T16:48:41.146Z,0.30
2023-04-12T16:51:08.951Z,0.47
2023-04-12T16:53:37.544Z,0.20
2023-04-12T16:56:05.448Z,0.30
2023-04-12T16:58:33.114Z,0.30
2023-04-12T17:01:00.891Z,0.30
2023-04-12T17:03:28.685Z,0.40
2023-04-12T17:05:58.280Z,1.10
2023-04-12T17:08:25.816Z,0.30
2023-04-12T17:10:54.165Z,0.30
2023-04-12T17:13:21.641Z,0.20
2023-04-12T17:15:49.158Z,0.23
2023-04-12T17:18:16.818Z,0.37
2023-04-12T17:20:45.258Z,0.23
2023-04-12T17:23:14.391Z,0.50
2023-04-12T17:25:42.335Z,1.23
2023-04-12T17:28:09.934Z,0.63
2023-04-12T17:30:37.593Z,0.30
2023-04-12T17:33:07.249Z,0.40
2023-04-12T17:35:35.006Z,0.50
2023-04-12T17:38:02.549Z,0.70
2023-04-12T17:40:31.435Z,0.37
2023-04-12T17:42:58.907Z,1.23
2023-04-12T17:45:26.601Z,0.80
2023-04-12T17:47:54.602Z,0.60
2023-04-12T17:50:22.608Z,0.47
2023-04-12T17:52:50.112Z,0.63
2023-04-12T17:55:19.780Z,0.70
2023-04-12T17:57:48.594Z,0.90
2023-04-12T18:00:18.783Z,0.40
2023-04-12T18:02:46.963Z,0.77
2023-04-12T18:05:15.353Z,0.60
2023-04-12T18:07:43.070Z,0.60
2023-04-12T18:10:12.646Z,0.67
2023-04-12T18:12:40.793Z,1.00
2023-04-12T18:15:10.929Z,0.60
2023-04-12T18:17:39.563Z,0.57
2023-04-12T18:20:09.991Z,1.00
2023-04-12T18:22:37.808Z,0.80
2023-04-12T18:25:06.320Z,0.60
2023-04-12T18:27:33.869Z,1.00
2023-04-12T18:30:03.323Z,0.57
2023-04-12T18:32:32.494Z,0.40
2023-04-12T18:35:00.048Z,0.70
2023-04-12T18:37:27.902Z,0.63
2023-04-12T18:39:55.578Z,1.20
2023-04-12T18:42:23.262Z,1.10
2023-04-12T18:44:51.408Z,1.27
2023-04-12T18:47:19.062Z,1.17
2023-04-12T18:49:48.133Z,1.10
2023-04-12T18:52:15.707Z,1.43
2023-04-12T18:54:43.177Z,1.13
2023-04-12T18:57:10.673Z,1.90
2023-04-12T18:59:38.208Z,0.80
2023-04-12T19:02:06.052Z,0.93
2023-04-12T19:04:33.537Z,2.40
2023-04-12T19:07:02.364Z,1.10
2023-04-12T19:09:29.816Z,1.63
2023-04-12T19:11:57.314Z,1.03
2023-04-12T19:14:25.278Z,1.27
2023-04-12T19:16:52.976Z,0.50
2023-04-12T19:19:20.780Z,1.07
2023-04-12T19:21:48.374Z,0.60
2023-04-12T19:24:17.476Z,0.70
2023-04-12T19:26:47.383Z,0.97
2023-04-12T19:29:15.956Z,0.80
2023-04-12T19:31:45.821Z,0.43
2023-04-12T19:34:17.471Z,0.60
2023-04-12T19:36:45.737Z,2.63
2023-04-12T19:39:13.383Z,0.90
2023-04-12T19:41:42.168Z,0.93
2023-04-12T19:44:09.627Z,1.00
2023-04-12T19:46:38.635Z,0.20
2023-04-12T19:49:06.248Z,0.97
2023-04-12T19:51:34.541Z,0.23
2023-04-12T19:54:02.620Z,0.33
2023-04-12T19:56:31.506Z,0.50
2023-04-12T19:59:00.552Z,0.57
2023-04-12T20:01:28.508Z,0.57
2023-04-12T20:03:55.999Z,0.60
2023-04-12T20:06:23.502Z,0.40
2023-04-12T20:08:51.163Z,0.80
2023-04-12T20:11:18.713Z,0.80
2023-04-12T20:13:46.164Z,0.37
2023-04-12T20:16:16.317Z,0.50
2023-04-12T20:18:43.830Z,1.37
2023-04-12T20:21:11.471Z,0.90
2023-04-12T20:23:39.034Z,0.57
2023-04-12T20:26:06.685Z,1.03
2023-04-12T20:28:34.326Z,1.33
2023-04-12T20:31:01.853Z,0.60
2023-04-12T20:33:31.057Z,0.40
2023-04-12T20:35:58.541Z,0.30
2023-04-12T20:38:26.327Z,0.30
2023-04-12T20:40:54.686Z,0.43
2023-04-12T20:43:22.168Z,0.30
2023-04-12T20:45:50.618Z,0.53
2023-04-12T20:48:18.343Z,0.50
2023-04-12T20:50:47.242Z,0.40
2023-04-12T20:53:17.554Z,0.40
2023-04-12T20:55:45.384Z,0.30
2023-04-12T20:58:13.114Z,0.30
2023-04-12T21:00:40.719Z,0.60
2023-04-12T21:05:35.740Z,0.40
2023-04-12T21:08:06.779Z,0.63
2023-04-12T21:10:34.220Z,0.40
2023-04-12T21:13:02.889Z,0.70
2023-04-12T21:15:31.771Z,0.50
2023-04-12T21:17:59.284Z,0.97
2023-04-12T21:20:27.283Z,0.43
2023-04-12T21:22:54.750Z,0.60
2023-04-12T21:25:25.802Z,0.60
2023-04-12T21:27:53.297Z,0.60
2023-04-12T21:30:21.139Z,1.10
2023-04-12T21:32:48.656Z,0.50
2023-04-12T21:35:16.346Z,0.77
2023-04-12T21:37:43.809Z,0.63
2023-04-12T21:40:12.585Z,1.10
2023-04-12T21:42:44.286Z,0.77
2023-04-12T21:45:12.955Z,1.87
2023-04-12T21:47:42.217Z,0.90
2023-04-12T21:50:11.240Z,0.90
2023-04-12T21:52:40.053Z,0.77
2023-04-12T21:55:08.131Z,0.97
2023-04-12T21:57:36.571Z,1.60
2023-04-12T22:00:08.676Z,0.80
2023-04-12T22:02:36.911Z,1.13
2023-04-12T22:05:04.756Z,1.30
2023-04-12T22:07:33.597Z,1.23
2023-04-12T22:10:01.901Z,2.90
2023-04-12T22:12:29.927Z,0.77
2023-04-12T22:14:57.475Z,2.40
2023-04-12T22:17:26.375Z,0.93
2023-04-12T22:19:56.446Z,0.70
2023-04-12T22:22:24.013Z,0.90
2023-04-12T22:24:52.568Z,1.00
2023-04-12T22:27:20.189Z,0.70
2023-04-12T22:29:49.668Z,0.63
2023-04-12T22:32:17.136Z,1.00
2023-04-12T22:34:48.334Z,0.83
2023-04-12T22:37:18.743Z,1.13
2023-04-12T22:39:46.985Z,0.90
2023-04-12T22:42:20.693Z,1.30
2023-04-12T22:44:49.726Z,1.17
2023-04-12T22:47:17.213Z,1.87
2023-04-12T22:49:50.251Z,1.10
2023-04-12T22:52:17.789Z,0.70
2023-04-12T22:54:47.872Z,0.57
2023-04-12T22:57:15.461Z,0.80
2023-04-12T22:59:43.073Z,0.50
2023-04-12T23:02:10.765Z,1.20
2023-04-12T23:04:38.435Z,1.03
2023-04-12T23:07:07.607Z,1.73
2023-04-12T23:09:36.058Z,0.67
2023-04-12T23:12:04.202Z,0.50
2023-04-12T23:14:31.716Z,0.60
2023-04-12T23:16:59.210Z,0.70
2023-04-12T23:19:27.240Z,0.50
2023-04-12T23:21:56.846Z,1.33
2023-04-12T23:24:25.917Z,1.20
2023-04-12T23:26:53.416Z,0.87
2023-04-12T23:29:21.604Z,0.60
2023-04-12T23:31:49.254Z,0.63
2023-04-12T23:34:18.819Z,0.70
2023-04-12T23:36:46.278Z,0.60
2023-04-12T23:39:13.746Z,1.03
2023-04-12T23:41:42.532Z,1.17
2023-04-12T23:44:10.106Z,1.10
2023-04-12T23:46:37.638Z,0.83
2023-04-12T23:49:05.203Z,1.20
2023-04-12T23:51:32.811Z,1.23
2023-04-12T23:54:00.657Z,1.17
2023-04-12T23:56:28.314Z,0.80
2023-04-12T23:58:57.197Z,1.20
